sensor_id;sensor_type;location;lat;lon;timestamp;temperature;humidity
76996;DHT22;65929;49.062;10.338;2023-08-08T00:00:52;11.10;82.00
76996;DHT22;65929;49.062;10.338;2023-08-08T00:01:54;11.10;82.10
76996;DHT22;65929;49.062;10.338;2023-08-08T00:02:55;11.10;82.00
76996;DHT22;65929;49.062;10.338;2023-08-08T00:03:56;11.00;82.10
76996;DHT22;65929;49.062;10.338;2023-08-08T00:04:57;11.00;82.10
76996;DHT22;65929;49.062;10.338;2023-08-08T00:05:58;11.00;82.60
76996;DHT22;65929;49.062;10.338;2023-08-08T00:06:59;11.00;82.80
76996;DHT22;65929;49.062;10.338;2023-08-08T00:07:59;11.00;83.00
76996;DHT22;65929;49.062;10.338;2023-08-08T00:09:00;10.90;83.30
76996;DHT22;65929;49.062;10.338;2023-08-08T00:10:01;11.00;83.20
76996;DHT22;65929;49.062;10.338;2023-08-08T00:11:02;11.00;83.60
76996;DHT22;65929;49.062;10.338;2023-08-08T00:12:05;11.00;82.50
76996;DHT22;65929;49.062;10.338;2023-08-08T00:13:06;11.00;82.50
76996;DHT22;65929;49.062;10.338;2023-08-08T00:14:07;11.10;82.50
76996;DHT22;65929;49.062;10.338;2023-08-08T00:15:08;11.10;82.80
76996;DHT22;65929;49.062;10.338;2023-08-08T00:16:10;11.10;82.90
76996;DHT22;65929;49.062;10.338;2023-08-08T00:17:10;11.00;82.50
76996;DHT22;65929;49.062;10.338;2023-08-08T00:18:11;11.10;83.30
76996;DHT22;65929;49.062;10.338;2023-08-08T00:19:12;11.00;83.50
76996;DHT22;65929;49.062;10.338;2023-08-08T00:20:13;11.00;82.70
76996;DHT22;65929;49.062;10.338;2023-08-08T00:21:14;11.10;82.70
76996;DHT22;65929;49.062;10.338;2023-08-08T00:22:15;11.10;82.70
76996;DHT22;65929;49.062;10.338;2023-08-08T00:23:16;11.10;82.80
76996;DHT22;65929;49.062;10.338;2023-08-08T00:24:17;11.10;82.60
76996;DHT22;65929;49.062;10.338;2023-08-08T00:25:18;11.10;82.40
76996;DHT22;65929;49.062;10.338;2023-08-08T00:26:19;11.20;82.10
76996;DHT22;65929;49.062;10.338;2023-08-08T00:27:21;11.20;82.10
76996;DHT22;65929;49.062;10.338;2023-08-08T00:28:22;11.20;82.10
76996;DHT22;65929;49.062;10.338;2023-08-08T00:29:24;11.20;82.10
76996;DHT22;65929;49.062;10.338;2023-08-08T00:30:25;11.20;82.20
76996;DHT22;65929;49.062;10.338;2023-08-08T00:31:26;11.20;82.60
76996;DHT22;65929;49.062;10.338;2023-08-08T00:32:27;11.10;82.80
76996;DHT22;65929;49.062;10.338;2023-08-08T00:33:27;11.10;81.90
76996;DHT22;65929;49.062;10.338;2023-08-08T00:34:28;11.10;82.30
76996;DHT22;65929;49.062;10.338;2023-08-08T00:35:29;11.20;82.10
76996;DHT22;65929;49.062;10.338;2023-08-08T00:36:30;11.10;82.40
76996;DHT22;65929;49.062;10.338;2023-08-08T00:37:31;11.10;82.10
76996;DHT22;65929;49.062;10.338;2023-08-08T00:38:32;11.10;82.10
76996;DHT22;65929;49.062;10.338;2023-08-08T00:39:33;11.10;82.60
76996;DHT22;65929;49.062;10.338;2023-08-08T00:40:34;11.10;82.30
76996;DHT22;65929;49.062;10.338;2023-08-08T00:41:35;11.10;82.10
76996;DHT22;65929;49.062;10.338;2023-08-08T00:42:37;11.10;81.90
76996;DHT22;65929;49.062;10.338;2023-08-08T00:43:38;11.10;82.00
76996;DHT22;65929;49.062;10.338;2023-08-08T00:44:39;11.10;81.90
76996;DHT22;65929;49.062;10.338;2023-08-08T00:45:42;11.10;82.00
76996;DHT22;65929;49.062;10.338;2023-08-08T00:46:44;11.10;81.90
76996;DHT22;65929;49.062;10.338;2023-08-08T00:47:45;11.10;82.00
76996;DHT22;65929;49.062;10.338;2023-08-08T00:48:46;11.10;81.90
76996;DHT22;65929;49.062;10.338;2023-08-08T00:49:47;11.10;81.80
76996;DHT22;65929;49.062;10.338;2023-08-08T00:50:50;11.10;81.70
76996;DHT22;65929;49.062;10.338;2023-08-08T00:51:51;11.10;81.80
76996;DHT22;65929;49.062;10.338;2023-08-08T00:52:52;11.10;81.70
76996;DHT22;65929;49.062;10.338;2023-08-08T00:53:54;11.10;81.60
76996;DHT22;65929;49.062;10.338;2023-08-08T00:54:56;11.00;81.80
76996;DHT22;65929;49.062;10.338;2023-08-08T00:55:58;11.00;82.10
76996;DHT22;65929;49.062;10.338;2023-08-08T00:56:59;10.90;82.10
76996;DHT22;65929;49.062;10.338;2023-08-08T00:58:02;10.80;82.40
76996;DHT22;65929;49.062;10.338;2023-08-08T00:59:03;10.80;82.60
76996;DHT22;65929;49.062;10.338;2023-08-08T01:00:06;10.80;82.80
76996;DHT22;65929;49.062;10.338;2023-08-08T01:01:07;10.70;83.00
76996;DHT22;65929;49.062;10.338;2023-08-08T01:02:09;10.70;83.10
76996;DHT22;65929;49.062;10.338;2023-08-08T01:03:10;10.70;83.40
76996;DHT22;65929;49.062;10.338;2023-08-08T01:04:11;10.70;83.40
76996;DHT22;65929;49.062;10.338;2023-08-08T01:05:12;10.60;83.50
76996;DHT22;65929;49.062;10.338;2023-08-08T01:06:19;10.60;83.80
76996;DHT22;65929;49.062;10.338;2023-08-08T01:07:30;10.60;83.70
76996;DHT22;65929;49.062;10.338;2023-08-08T01:08:48;10.60;83.60
76996;DHT22;65929;49.062;10.338;2023-08-08T01:09:57;10.50;83.80
76996;DHT22;65929;49.062;10.338;2023-08-08T01:11:02;10.50;84.00
76996;DHT22;65929;49.062;10.338;2023-08-08T01:12:05;10.50;83.90
76996;DHT22;65929;49.062;10.338;2023-08-08T01:13:10;10.50;84.00
76996;DHT22;65929;49.062;10.338;2023-08-08T01:14:13;10.60;83.80
76996;DHT22;65929;49.062;10.338;2023-08-08T01:15:15;10.60;83.70
76996;DHT22;65929;49.062;10.338;2023-08-08T01:16:17;10.60;83.70
76996;DHT22;65929;49.062;10.338;2023-08-08T01:17:21;10.60;83.70
76996;DHT22;65929;49.062;10.338;2023-08-08T01:18:22;10.60;83.80
76996;DHT22;65929;49.062;10.338;2023-08-08T01:19:27;10.60;84.10
76996;DHT22;65929;49.062;10.338;2023-08-08T01:20:29;10.60;84.10
76996;DHT22;65929;49.062;10.338;2023-08-08T01:21:31;10.60;84.00
76996;DHT22;65929;49.062;10.338;2023-08-08T01:22:37;10.60;84.00
76996;DHT22;65929;49.062;10.338;2023-08-08T01:23:43;10.60;84.10
76996;DHT22;65929;49.062;10.338;2023-08-08T01:24:47;10.60;84.10
76996;DHT22;65929;49.062;10.338;2023-08-08T01:25:48;10.60;84.10
76996;DHT22;65929;49.062;10.338;2023-08-08T01:26:49;10.60;84.10
76996;DHT22;65929;49.062;10.338;2023-08-08T01:27:51;10.60;84.60
76996;DHT22;65929;49.062;10.338;2023-08-08T01:28:53;10.60;84.00
76996;DHT22;65929;49.062;10.338;2023-08-08T01:29:55;10.60;83.80
76996;DHT22;65929;49.062;10.338;2023-08-08T01:30:56;10.60;84.00
76996;DHT22;65929;49.062;10.338;2023-08-08T01:31:56;10.60;84.20
76996;DHT22;65929;49.062;10.338;2023-08-08T01:32:57;10.60;84.50
76996;DHT22;65929;49.062;10.338;2023-08-08T01:33:58;10.60;84.80
76996;DHT22;65929;49.062;10.338;2023-08-08T01:34:59;10.60;85.00
76996;DHT22;65929;49.062;10.338;2023-08-08T01:36:04;10.60;84.90
76996;DHT22;65929;49.062;10.338;2023-08-08T01:37:13;10.60;84.80
76996;DHT22;65929;49.062;10.338;2023-08-08T01:38:20;10.70;84.50
76996;DHT22;65929;49.062;10.338;2023-08-08T01:39:26;10.70;84.20
76996;DHT22;65929;49.062;10.338;2023-08-08T01:40:29;10.70;84.30
76996;DHT22;65929;49.062;10.338;2023-08-08T01:41:31;10.70;83.90
76996;DHT22;65929;49.062;10.338;2023-08-08T01:42:33;10.80;83.60
76996;DHT22;65929;49.062;10.338;2023-08-08T01:43:35;10.80;83.70
76996;DHT22;65929;49.062;10.338;2023-08-08T01:44:39;10.80;84.20
76996;DHT22;65929;49.062;10.338;2023-08-08T01:45:41;10.70;83.90
76996;DHT22;65929;49.062;10.338;2023-08-08T01:46:43;10.70;84.40
76996;DHT22;65929;49.062;10.338;2023-08-08T01:47:58;10.70;84.60
76996;DHT22;65929;49.062;10.338;2023-08-08T01:48:59;10.70;84.00
76996;DHT22;65929;49.062;10.338;2023-08-08T01:50:00;10.80;83.90
76996;DHT22;65929;49.062;10.338;2023-08-08T01:51:01;10.80;84.10
76996;DHT22;65929;49.062;10.338;2023-08-08T01:52:02;10.70;84.10
76996;DHT22;65929;49.062;10.338;2023-08-08T01:53:04;10.70;83.90
76996;DHT22;65929;49.062;10.338;2023-08-08T01:54:05;10.70;83.90
76996;DHT22;65929;49.062;10.338;2023-08-08T01:55:06;10.80;83.70
76996;DHT22;65929;49.062;10.338;2023-08-08T01:56:09;10.70;84.00
76996;DHT22;65929;49.062;10.338;2023-08-08T01:57:10;10.60;84.20
76996;DHT22;65929;49.062;10.338;2023-08-08T01:58:11;10.60;84.20
76996;DHT22;65929;49.062;10.338;2023-08-08T01:59:12;10.60;84.50
76996;DHT22;65929;49.062;10.338;2023-08-08T02:00:13;10.50;84.60
76996;DHT22;65929;49.062;10.338;2023-08-08T02:01:14;10.50;84.80
76996;DHT22;65929;49.062;10.338;2023-08-08T02:02:15;10.50;85.00
76996;DHT22;65929;49.062;10.338;2023-08-08T02:03:17;10.40;85.00
76996;DHT22;65929;49.062;10.338;2023-08-08T02:04:19;10.40;85.20
76996;DHT22;65929;49.062;10.338;2023-08-08T02:05:20;10.40;85.00
76996;DHT22;65929;49.062;10.338;2023-08-08T02:06:21;10.40;85.10
76996;DHT22;65929;49.062;10.338;2023-08-08T02:07:22;10.40;85.20
76996;DHT22;65929;49.062;10.338;2023-08-08T02:08:22;10.40;85.10
76996;DHT22;65929;49.062;10.338;2023-08-08T02:09:23;10.40;85.00
76996;DHT22;65929;49.062;10.338;2023-08-08T02:10:24;10.40;85.10
76996;DHT22;65929;49.062;10.338;2023-08-08T02:11:27;10.40;85.30
76996;DHT22;65929;49.062;10.338;2023-08-08T02:12:28;10.40;85.30
76996;DHT22;65929;49.062;10.338;2023-08-08T02:13:30;10.40;85.30
76996;DHT22;65929;49.062;10.338;2023-08-08T02:14:31;10.40;85.20
76996;DHT22;65929;49.062;10.338;2023-08-08T02:15:32;10.40;85.10
76996;DHT22;65929;49.062;10.338;2023-08-08T02:16:33;10.40;85.10
76996;DHT22;65929;49.062;10.338;2023-08-08T02:17:37;10.40;85.20
76996;DHT22;65929;49.062;10.338;2023-08-08T02:18:38;10.40;85.40
76996;DHT22;65929;49.062;10.338;2023-08-08T02:19:41;10.40;85.50
76996;DHT22;65929;49.062;10.338;2023-08-08T02:20:42;10.40;85.40
76996;DHT22;65929;49.062;10.338;2023-08-08T02:21:43;10.40;85.40
76996;DHT22;65929;49.062;10.338;2023-08-08T02:22:44;10.50;85.20
76996;DHT22;65929;49.062;10.338;2023-08-08T02:23:45;10.50;85.20
76996;DHT22;65929;49.062;10.338;2023-08-08T02:24:46;10.50;84.80
76996;DHT22;65929;49.062;10.338;2023-08-08T02:25:46;10.60;85.00
76996;DHT22;65929;49.062;10.338;2023-08-08T02:26:49;10.60;84.90
76996;DHT22;65929;49.062;10.338;2023-08-08T02:27:50;10.50;85.20
76996;DHT22;65929;49.062;10.338;2023-08-08T02:28:51;10.50;84.90
76996;DHT22;65929;49.062;10.338;2023-08-08T02:29:51;10.50;84.80
76996;DHT22;65929;49.062;10.338;2023-08-08T02:30:53;10.50;85.00
76996;DHT22;65929;49.062;10.338;2023-08-08T02:31:54;10.50;85.20
76996;DHT22;65929;49.062;10.338;2023-08-08T02:32:54;10.50;85.20
76996;DHT22;65929;49.062;10.338;2023-08-08T02:33:55;10.50;85.20
76996;DHT22;65929;49.062;10.338;2023-08-08T02:34:56;10.50;85.10
76996;DHT22;65929;49.062;10.338;2023-08-08T02:35:57;10.50;85.20
76996;DHT22;65929;49.062;10.338;2023-08-08T02:36:58;10.50;85.20
76996;DHT22;65929;49.062;10.338;2023-08-08T02:37:59;10.50;85.40
76996;DHT22;65929;49.062;10.338;2023-08-08T02:39:00;10.50;85.10
76996;DHT22;65929;49.062;10.338;2023-08-08T02:40:01;10.50;85.20
76996;DHT22;65929;49.062;10.338;2023-08-08T02:41:03;10.50;85.20
76996;DHT22;65929;49.062;10.338;2023-08-08T02:42:06;10.50;85.20
76996;DHT22;65929;49.062;10.338;2023-08-08T02:43:07;10.50;85.20
76996;DHT22;65929;49.062;10.338;2023-08-08T02:44:10;10.60;84.80
76996;DHT22;65929;49.062;10.338;2023-08-08T02:45:11;10.60;84.90
76996;DHT22;65929;49.062;10.338;2023-08-08T02:46:12;10.60;84.90
76996;DHT22;65929;49.062;10.338;2023-08-08T02:47:13;10.60;84.90
76996;DHT22;65929;49.062;10.338;2023-08-08T02:48:14;10.60;85.00
76996;DHT22;65929;49.062;10.338;2023-08-08T02:49:15;10.50;85.00
76996;DHT22;65929;49.062;10.338;2023-08-08T02:50:16;10.50;85.30
76996;DHT22;65929;49.062;10.338;2023-08-08T02:51:18;10.50;85.10
76996;DHT22;65929;49.062;10.338;2023-08-08T02:52:18;10.50;85.20
76996;DHT22;65929;49.062;10.338;2023-08-08T02:53:19;10.60;85.10
76996;DHT22;65929;49.062;10.338;2023-08-08T02:54:20;10.50;85.00
76996;DHT22;65929;49.062;10.338;2023-08-08T02:55:21;10.50;85.30
76996;DHT22;65929;49.062;10.338;2023-08-08T02:56:22;10.50;85.20
76996;DHT22;65929;49.062;10.338;2023-08-08T02:57:24;10.50;85.00
76996;DHT22;65929;49.062;10.338;2023-08-08T02:58:25;10.50;85.30
76996;DHT22;65929;49.062;10.338;2023-08-08T02:59:26;10.40;85.50
76996;DHT22;65929;49.062;10.338;2023-08-08T03:00:28;10.40;85.70
76996;DHT22;65929;49.062;10.338;2023-08-08T03:01:29;10.40;85.80
76996;DHT22;65929;49.062;10.338;2023-08-08T03:02:30;10.40;85.90
76996;DHT22;65929;49.062;10.338;2023-08-08T03:03:31;10.40;86.00
76996;DHT22;65929;49.062;10.338;2023-08-08T03:04:31;10.40;86.10
76996;DHT22;65929;49.062;10.338;2023-08-08T03:05:33;10.40;86.10
76996;DHT22;65929;49.062;10.338;2023-08-08T03:06:33;10.40;86.00
76996;DHT22;65929;49.062;10.338;2023-08-08T03:07:34;10.40;86.50
76996;DHT22;65929;49.062;10.338;2023-08-08T03:08:35;10.40;86.60
76996;DHT22;65929;49.062;10.338;2023-08-08T03:09:36;10.40;86.00
76996;DHT22;65929;49.062;10.338;2023-08-08T03:10:37;10.40;85.80
76996;DHT22;65929;49.062;10.338;2023-08-08T03:11:38;10.40;85.80
76996;DHT22;65929;49.062;10.338;2023-08-08T03:12:43;10.50;85.70
76996;DHT22;65929;49.062;10.338;2023-08-08T03:13:44;10.50;85.50
76996;DHT22;65929;49.062;10.338;2023-08-08T03:14:45;10.40;85.70
76996;DHT22;65929;49.062;10.338;2023-08-08T03:15:46;10.40;85.60
76996;DHT22;65929;49.062;10.338;2023-08-08T03:16:47;10.40;86.00
76996;DHT22;65929;49.062;10.338;2023-08-08T03:17:47;10.40;85.70
76996;DHT22;65929;49.062;10.338;2023-08-08T03:18:48;10.40;85.70
76996;DHT22;65929;49.062;10.338;2023-08-08T03:19:50;10.40;85.60
76996;DHT22;65929;49.062;10.338;2023-08-08T03:20:51;10.40;85.90
76996;DHT22;65929;49.062;10.338;2023-08-08T03:21:52;10.30;86.30
76996;DHT22;65929;49.062;10.338;2023-08-08T03:22:53;10.30;86.40
76996;DHT22;65929;49.062;10.338;2023-08-08T03:23:54;10.30;86.40
76996;DHT22;65929;49.062;10.338;2023-08-08T03:24:54;10.20;86.70
76996;DHT22;65929;49.062;10.338;2023-08-08T03:25:55;10.20;86.60
76996;DHT22;65929;49.062;10.338;2023-08-08T03:26:56;10.20;86.70
76996;DHT22;65929;49.062;10.338;2023-08-08T03:27:58;10.20;86.70
76996;DHT22;65929;49.062;10.338;2023-08-08T03:28:59;10.20;86.70
76996;DHT22;65929;49.062;10.338;2023-08-08T03:30:00;10.20;86.60
76996;DHT22;65929;49.062;10.338;2023-08-08T03:31:01;10.20;86.60
76996;DHT22;65929;49.062;10.338;2023-08-08T03:32:04;10.20;86.70
76996;DHT22;65929;49.062;10.338;2023-08-08T03:33:05;10.20;86.80
76996;DHT22;65929;49.062;10.338;2023-08-08T03:34:06;10.20;86.70
76996;DHT22;65929;49.062;10.338;2023-08-08T03:35:07;10.30;86.70
76996;DHT22;65929;49.062;10.338;2023-08-08T03:36:10;10.20;86.50
76996;DHT22;65929;49.062;10.338;2023-08-08T03:37:11;10.20;86.80
76996;DHT22;65929;49.062;10.338;2023-08-08T03:38:11;10.20;86.70
76996;DHT22;65929;49.062;10.338;2023-08-08T03:39:12;10.20;86.90
76996;DHT22;65929;49.062;10.338;2023-08-08T03:40:13;10.20;87.10
76996;DHT22;65929;49.062;10.338;2023-08-08T03:41:15;10.10;87.00
76996;DHT22;65929;49.062;10.338;2023-08-08T03:42:16;10.10;87.30
76996;DHT22;65929;49.062;10.338;2023-08-08T03:43:18;10.10;87.40
76996;DHT22;65929;49.062;10.338;2023-08-08T03:44:19;10.10;87.30
76996;DHT22;65929;49.062;10.338;2023-08-08T03:45:20;10.20;87.20
76996;DHT22;65929;49.062;10.338;2023-08-08T03:46:21;10.20;86.90
76996;DHT22;65929;49.062;10.338;2023-08-08T03:47:22;10.20;86.90
76996;DHT22;65929;49.062;10.338;2023-08-08T03:48:23;10.20;86.60
76996;DHT22;65929;49.062;10.338;2023-08-08T03:49:25;10.20;86.70
76996;DHT22;65929;49.062;10.338;2023-08-08T03:50:26;10.10;86.90
76996;DHT22;65929;49.062;10.338;2023-08-08T03:51:27;10.10;87.30
76996;DHT22;65929;49.062;10.338;2023-08-08T03:52:27;10.10;87.60
76996;DHT22;65929;49.062;10.338;2023-08-08T03:53:31;10.00;87.50
76996;DHT22;65929;49.062;10.338;2023-08-08T03:54:32;10.00;87.50
76996;DHT22;65929;49.062;10.338;2023-08-08T03:55:33;10.00;87.80
76996;DHT22;65929;49.062;10.338;2023-08-08T03:56:34;10.00;88.20
76996;DHT22;65929;49.062;10.338;2023-08-08T03:57:35;9.80;88.20
76996;DHT22;65929;49.062;10.338;2023-08-08T03:58:37;9.80;88.50
76996;DHT22;65929;49.062;10.338;2023-08-08T03:59:38;9.80;88.60
76996;DHT22;65929;49.062;10.338;2023-08-08T04:00:39;9.80;88.60
76996;DHT22;65929;49.062;10.338;2023-08-08T04:01:46;9.80;88.50
76996;DHT22;65929;49.062;10.338;2023-08-08T04:02:47;9.80;88.90
76996;DHT22;65929;49.062;10.338;2023-08-08T04:03:48;9.80;88.60
76996;DHT22;65929;49.062;10.338;2023-08-08T04:04:49;9.80;88.60
76996;DHT22;65929;49.062;10.338;2023-08-08T04:05:50;9.80;88.60
76996;DHT22;65929;49.062;10.338;2023-08-08T04:06:51;9.80;88.60
76996;DHT22;65929;49.062;10.338;2023-08-08T04:07:52;9.80;88.50
76996;DHT22;65929;49.062;10.338;2023-08-08T04:08:53;9.80;88.30
76996;DHT22;65929;49.062;10.338;2023-08-08T04:09:54;9.80;88.20
76996;DHT22;65929;49.062;10.338;2023-08-08T04:10:54;9.80;88.50
76996;DHT22;65929;49.062;10.338;2023-08-08T04:11:55;9.80;88.60
76996;DHT22;65929;49.062;10.338;2023-08-08T04:12:56;9.80;88.30
76996;DHT22;65929;49.062;10.338;2023-08-08T04:13:58;9.80;88.10
76996;DHT22;65929;49.062;10.338;2023-08-08T04:14:59;9.80;88.00
76996;DHT22;65929;49.062;10.338;2023-08-08T04:16:00;9.80;88.00
76996;DHT22;65929;49.062;10.338;2023-08-08T04:17:02;9.80;88.20
76996;DHT22;65929;49.062;10.338;2023-08-08T04:18:04;9.70;88.30
76996;DHT22;65929;49.062;10.338;2023-08-08T04:19:07;9.70;88.40
76996;DHT22;65929;49.062;10.338;2023-08-08T04:20:08;9.70;88.50
76996;DHT22;65929;49.062;10.338;2023-08-08T04:21:10;9.70;88.50
76996;DHT22;65929;49.062;10.338;2023-08-08T04:22:11;9.70;88.40
76996;DHT22;65929;49.062;10.338;2023-08-08T04:23:12;9.70;88.40
76996;DHT22;65929;49.062;10.338;2023-08-08T04:24:13;9.70;88.60
76996;DHT22;65929;49.062;10.338;2023-08-08T04:25:15;9.70;88.70
76996;DHT22;65929;49.062;10.338;2023-08-08T04:26:16;9.70;88.80
76996;DHT22;65929;49.062;10.338;2023-08-08T04:27:17;9.60;88.60
76996;DHT22;65929;49.062;10.338;2023-08-08T04:28:18;9.60;88.80
76996;DHT22;65929;49.062;10.338;2023-08-08T04:29:20;9.60;88.90
76996;DHT22;65929;49.062;10.338;2023-08-08T04:30:21;9.60;89.10
76996;DHT22;65929;49.062;10.338;2023-08-08T04:31:22;9.50;89.60
76996;DHT22;65929;49.062;10.338;2023-08-08T04:32:25;9.50;89.70
76996;DHT22;65929;49.062;10.338;2023-08-08T04:33:26;9.50;89.60
76996;DHT22;65929;49.062;10.338;2023-08-08T04:34:27;9.40;89.90
76996;DHT22;65929;49.062;10.338;2023-08-08T04:35:28;9.40;90.00
76996;DHT22;65929;49.062;10.338;2023-08-08T04:36:29;9.40;90.00
76996;DHT22;65929;49.062;10.338;2023-08-08T04:37:30;9.40;90.00
76996;DHT22;65929;49.062;10.338;2023-08-08T04:38:31;9.40;90.00
76996;DHT22;65929;49.062;10.338;2023-08-08T04:39:32;9.40;90.10
76996;DHT22;65929;49.062;10.338;2023-08-08T04:40:33;9.40;90.00
76996;DHT22;65929;49.062;10.338;2023-08-08T04:41:34;9.40;90.00
76996;DHT22;65929;49.062;10.338;2023-08-08T04:42:35;9.40;89.90
76996;DHT22;65929;49.062;10.338;2023-08-08T04:43:36;9.50;90.00
76996;DHT22;65929;49.062;10.338;2023-08-08T04:44:38;9.50;89.80
76996;DHT22;65929;49.062;10.338;2023-08-08T04:45:39;9.40;89.90
76996;DHT22;65929;49.062;10.338;2023-08-08T04:46:40;9.40;89.80
76996;DHT22;65929;49.062;10.338;2023-08-08T04:47:41;9.50;90.20
76996;DHT22;65929;49.062;10.338;2023-08-08T04:48:41;9.50;90.00
76996;DHT22;65929;49.062;10.338;2023-08-08T04:49:42;9.50;90.00
76996;DHT22;65929;49.062;10.338;2023-08-08T04:50:43;9.60;90.00
76996;DHT22;65929;49.062;10.338;2023-08-08T04:51:46;9.60;89.80
76996;DHT22;65929;49.062;10.338;2023-08-08T04:52:47;9.70;89.70
76996;DHT22;65929;49.062;10.338;2023-08-08T04:53:48;9.70;89.50
76996;DHT22;65929;49.062;10.338;2023-08-08T04:54:49;9.70;89.40
76996;DHT22;65929;49.062;10.338;2023-08-08T04:55:50;9.80;89.20
76996;DHT22;65929;49.062;10.338;2023-08-08T04:56:51;9.80;89.10
76996;DHT22;65929;49.062;10.338;2023-08-08T04:57:52;9.80;89.10
76996;DHT22;65929;49.062;10.338;2023-08-08T04:58:52;9.80;89.20
76996;DHT22;65929;49.062;10.338;2023-08-08T04:59:55;9.80;89.20
76996;DHT22;65929;49.062;10.338;2023-08-08T05:00:56;9.80;89.00
76996;DHT22;65929;49.062;10.338;2023-08-08T05:01:57;9.90;89.10
76996;DHT22;65929;49.062;10.338;2023-08-08T05:02:58;10.00;89.10
76996;DHT22;65929;49.062;10.338;2023-08-08T05:03:59;10.00;88.80
76996;DHT22;65929;49.062;10.338;2023-08-08T05:05:00;10.10;88.60
76996;DHT22;65929;49.062;10.338;2023-08-08T05:06:01;10.10;88.50
76996;DHT22;65929;49.062;10.338;2023-08-08T05:07:04;10.20;88.30
76996;DHT22;65929;49.062;10.338;2023-08-08T05:08:05;10.20;88.20
76996;DHT22;65929;49.062;10.338;2023-08-08T05:09:06;10.20;88.20
76996;DHT22;65929;49.062;10.338;2023-08-08T05:10:10;10.30;88.00
76996;DHT22;65929;49.062;10.338;2023-08-08T05:11:11;10.30;87.80
76996;DHT22;65929;49.062;10.338;2023-08-08T05:12:12;10.40;87.60
76996;DHT22;65929;49.062;10.338;2023-08-08T05:13:13;10.40;87.50
76996;DHT22;65929;49.062;10.338;2023-08-08T05:14:14;10.40;87.50
76996;DHT22;65929;49.062;10.338;2023-08-08T05:15:16;10.50;87.30
76996;DHT22;65929;49.062;10.338;2023-08-08T05:16:17;10.50;87.20
76996;DHT22;65929;49.062;10.338;2023-08-08T05:17:18;10.60;87.20
76996;DHT22;65929;49.062;10.338;2023-08-08T05:18:19;10.70;86.90
76996;DHT22;65929;49.062;10.338;2023-08-08T05:19:20;10.80;86.70
76996;DHT22;65929;49.062;10.338;2023-08-08T05:20:21;10.90;86.30
76996;DHT22;65929;49.062;10.338;2023-08-08T05:21:22;11.00;86.00
76996;DHT22;65929;49.062;10.338;2023-08-08T05:22:23;11.10;85.50
76996;DHT22;65929;49.062;10.338;2023-08-08T05:23:24;11.10;85.30
76996;DHT22;65929;49.062;10.338;2023-08-08T05:24:25;11.30;85.30
76996;DHT22;65929;49.062;10.338;2023-08-08T05:25:26;11.40;84.90
76996;DHT22;65929;49.062;10.338;2023-08-08T05:26:27;11.50;84.70
76996;DHT22;65929;49.062;10.338;2023-08-08T05:27:28;11.60;83.90
76996;DHT22;65929;49.062;10.338;2023-08-08T05:28:29;11.70;82.80
76996;DHT22;65929;49.062;10.338;2023-08-08T05:29:30;11.90;82.10
76996;DHT22;65929;49.062;10.338;2023-08-08T05:30:32;11.90;82.50
76996;DHT22;65929;49.062;10.338;2023-08-08T05:31:34;12.00;82.60
76996;DHT22;65929;49.062;10.338;2023-08-08T05:32:35;12.00;82.60
76996;DHT22;65929;49.062;10.338;2023-08-08T05:33:35;12.10;82.70
76996;DHT22;65929;49.062;10.338;2023-08-08T05:34:36;12.10;82.00
76996;DHT22;65929;49.062;10.338;2023-08-08T05:35:37;12.20;82.40
76996;DHT22;65929;49.062;10.338;2023-08-08T05:36:38;12.20;82.90
76996;DHT22;65929;49.062;10.338;2023-08-08T05:37:39;12.20;82.70
76996;DHT22;65929;49.062;10.338;2023-08-08T05:38:40;12.20;82.60
76996;DHT22;65929;49.062;10.338;2023-08-08T05:39:42;12.30;82.30
76996;DHT22;65929;49.062;10.338;2023-08-08T05:40:43;12.30;82.20
76996;DHT22;65929;49.062;10.338;2023-08-08T05:41:44;12.30;82.00
76996;DHT22;65929;49.062;10.338;2023-08-08T05:42:45;12.30;82.20
76996;DHT22;65929;49.062;10.338;2023-08-08T05:43:45;12.30;80.50
76996;DHT22;65929;49.062;10.338;2023-08-08T05:44:46;12.30;81.20
76996;DHT22;65929;49.062;10.338;2023-08-08T05:45:49;12.40;81.20
76996;DHT22;65929;49.062;10.338;2023-08-08T05:46:50;12.50;81.20
76996;DHT22;65929;49.062;10.338;2023-08-08T05:47:51;12.50;80.80
76996;DHT22;65929;49.062;10.338;2023-08-08T05:48:51;12.50;81.40
76996;DHT22;65929;49.062;10.338;2023-08-08T05:49:52;12.50;81.20
76996;DHT22;65929;49.062;10.338;2023-08-08T05:50:53;12.60;80.50
76996;DHT22;65929;49.062;10.338;2023-08-08T05:51:54;12.70;79.70
76996;DHT22;65929;49.062;10.338;2023-08-08T05:52:55;12.80;79.90
76996;DHT22;65929;49.062;10.338;2023-08-08T05:53:56;12.80;78.90
76996;DHT22;65929;49.062;10.338;2023-08-08T05:54:57;12.80;78.30
76996;DHT22;65929;49.062;10.338;2023-08-08T05:55:59;12.80;78.90
76996;DHT22;65929;49.062;10.338;2023-08-08T05:57:02;12.90;78.50
76996;DHT22;65929;49.062;10.338;2023-08-08T05:58:04;12.90;79.20
76996;DHT22;65929;49.062;10.338;2023-08-08T05:59:05;12.90;78.30
76996;DHT22;65929;49.062;10.338;2023-08-08T06:00:07;12.90;78.70
76996;DHT22;65929;49.062;10.338;2023-08-08T06:01:13;12.90;78.30
76996;DHT22;65929;49.062;10.338;2023-08-08T06:02:13;12.90;79.00
76996;DHT22;65929;49.062;10.338;2023-08-08T06:03:14;12.90;79.30
76996;DHT22;65929;49.062;10.338;2023-08-08T06:04:15;12.80;79.60
76996;DHT22;65929;49.062;10.338;2023-08-08T06:05:17;12.70;79.20
76996;DHT22;65929;49.062;10.338;2023-08-08T06:06:18;12.70;79.80
76996;DHT22;65929;49.062;10.338;2023-08-08T06:07:19;12.70;79.50
76996;DHT22;65929;49.062;10.338;2023-08-08T06:08:20;12.60;80.20
76996;DHT22;65929;49.062;10.338;2023-08-08T06:09:21;12.60;80.30
76996;DHT22;65929;49.062;10.338;2023-08-08T06:10:23;12.50;79.50
76996;DHT22;65929;49.062;10.338;2023-08-08T06:11:25;12.50;80.10
76996;DHT22;65929;49.062;10.338;2023-08-08T06:12:26;12.50;80.90
76996;DHT22;65929;49.062;10.338;2023-08-08T06:13:27;12.50;80.00
76996;DHT22;65929;49.062;10.338;2023-08-08T06:14:28;12.40;80.20
76996;DHT22;65929;49.062;10.338;2023-08-08T06:15:29;12.40;79.50
76996;DHT22;65929;49.062;10.338;2023-08-08T06:16:31;12.40;79.60
76996;DHT22;65929;49.062;10.338;2023-08-08T06:17:32;12.40;80.40
76996;DHT22;65929;49.062;10.338;2023-08-08T06:18:36;12.50;80.70
76996;DHT22;65929;49.062;10.338;2023-08-08T06:19:37;12.50;81.00
76996;DHT22;65929;49.062;10.338;2023-08-08T06:20:38;12.50;79.70
76996;DHT22;65929;49.062;10.338;2023-08-08T06:21:39;12.50;79.90
76996;DHT22;65929;49.062;10.338;2023-08-08T06:22:41;12.50;79.60
76996;DHT22;65929;49.062;10.338;2023-08-08T06:23:42;12.50;79.30